Portada
METAR-TAF:

METAR-TAF

Aeropuertos :

El Palmar

Santa Ana, El Salvador

latitud: 13-59N, longitud: 089-34W, altitud: 725 m

Observación

El informe se hizo hace 12 horas y 4 minutos, a las 21:50 UTC
Viento 3 kt del este-sureste
Temperatura 25°C
Humedad 100%
Presión 1015 hPa
Visibilidad 10 km o más
Nubes dispersas a una altura de 3300 ft

METAR: MSSA 172150Z 11003KT 9999 SCT033 25/25 Q1015 A2998

Hora: 03:54 (09:54 UTC)


TAF: falta

Observaciones y pronósticos meteorológicos de más de 4000 aeropuertos (mensajes METAR y TAF).

Los puntos amarillos y rojos representan las estaciones disponibles.

Ponga el ratón en el punto deseado para ver el nombre de la estación.

Haga clic para ver las observaciones y los pronósticos meteorológicos.

Para cambiar el mapa : haga clic en los botones verdes con una cruz de color negro para hacer un zoom, en el botón verde con un guión para alejar o en las flechas verdes para mapas adyacentes.


METAR-TAF: